createdAt,value
2022-08-22T00:02:26.317Z,98487.34
2022-08-22T00:02:42.056Z,98435.28
2022-08-22T00:03:12.734Z,98491.03
2022-08-22T00:05:03.336Z,98483.53
2022-08-22T00:07:45.304Z,98486.38
2022-08-22T00:10:24.934Z,98489.63
2022-08-22T00:13:03.234Z,98491.44
2022-08-22T00:15:42.968Z,98490.09
2022-08-22T00:18:16.152Z,98486.72
2022-08-22T00:20:54.101Z,98483.03
2022-08-22T00:23:28.898Z,98477.00
2022-08-22T00:26:03.022Z,98484.69
2022-08-22T00:28:37.015Z,98476.47
2022-08-22T00:31:14.331Z,98478.69
2022-08-22T00:33:49.849Z,98477.53
2022-08-22T00:36:26.764Z,98485.09
2022-08-22T00:39:07.303Z,98472.38
2022-08-22T00:41:50.750Z,98469.03
2022-08-22T00:44:43.032Z,98467.53
2022-08-22T00:47:24.946Z,98474.69
2022-08-22T00:50:27.269Z,98473.03
2022-08-22T00:53:23.740Z,98463.84
2022-08-22T00:56:04.836Z,98472.00
2022-08-22T00:58:57.411Z,98468.22
2022-08-22T01:01:32.617Z,98471.53
2022-08-22T01:04:26.412Z,98468.13
2022-08-22T01:07:09.230Z,98475.22
2022-08-22T01:09:48.058Z,98474.72
2022-08-22T01:12:31.696Z,98463.69
2022-08-22T01:15:03.785Z,98464.00
2022-08-22T01:17:58.147Z,98467.97
2022-08-22T01:20:50.970Z,98472.75
2022-08-22T01:24:05.818Z,98471.00
2022-08-22T01:27:11.890Z,98468.53
2022-08-22T01:30:16.383Z,98472.13
2022-08-22T01:33:20.262Z,98469.13
2022-08-22T01:36:25.321Z,98470.34
2022-08-22T01:39:19.229Z,98464.78
2022-08-22T01:42:20.215Z,98468.22
2022-08-22T01:45:04.699Z,98465.50
2022-08-22T01:47:39.325Z,98469.97
2022-08-22T01:50:18.710Z,98469.66
2022-08-22T01:52:51.619Z,98480.16
2022-08-22T01:55:31.183Z,98483.44
2022-08-22T01:58:04.917Z,98480.63
2022-08-22T02:00:52.522Z,98482.13
2022-08-22T02:03:26.172Z,98480.78
2022-08-22T02:06:00.237Z,98482.94
2022-08-22T02:08:39.036Z,98472.19
2022-08-22T02:11:10.517Z,98479.25
2022-08-22T02:13:54.297Z,98476.34
2022-08-22T02:16:36.242Z,98484.34
2022-08-22T02:19:12.771Z,98478.91
2022-08-22T02:21:47.103Z,98480.69
2022-08-22T02:24:25.959Z,98481.50
2022-08-22T02:27:06.211Z,98495.81
2022-08-22T02:29:41.613Z,98483.88
2022-08-22T02:32:24.043Z,98482.25
2022-08-22T02:35:06.243Z,98482.72
2022-08-22T02:37:39.484Z,98474.81
2022-08-22T02:40:17.861Z,98480.88
2022-08-22T02:42:51.548Z,98480.06
2022-08-22T02:45:38.981Z,98471.53
2022-08-22T02:48:18.232Z,98462.19
2022-08-22T02:50:54.328Z,98465.63
2022-08-22T02:53:29.652Z,98462.66
2022-08-22T02:56:04.173Z,98467.59
2022-08-22T02:58:43.421Z,98457.88
2022-08-22T03:01:23.296Z,98464.53
2022-08-22T03:03:53.335Z,98466.31
2022-08-22T03:06:38.106Z,98454.28
2022-08-22T03:09:21.805Z,98461.97
2022-08-22T03:12:06.185Z,98459.44
2022-08-22T03:14:43.367Z,98466.00
2022-08-22T03:17:16.198Z,98464.91
2022-08-22T03:19:50.346Z,98465.81
2022-08-22T03:22:24.044Z,98471.63
2022-08-22T03:24:56.425Z,98466.19
2022-08-22T03:27:32.624Z,98471.16
2022-08-22T03:30:07.077Z,98466.56
2022-08-22T03:32:51.220Z,98467.94
2022-08-22T03:35:39.416Z,98466.13
2022-08-22T03:38:18.894Z,98461.16
2022-08-22T03:41:28.128Z,98467.88
2022-08-22T03:44:13.470Z,98467.63
2022-08-22T03:47:09.136Z,98466.19
2022-08-22T03:50:14.746Z,98464.81
2022-08-22T03:53:18.527Z,98474.94
2022-08-22T03:56:24.043Z,98468.41
2022-08-22T03:59:29.688Z,98466.25
2022-08-22T04:02:24.744Z,98475.38
2022-08-22T04:05:38.785Z,98472.44
2022-08-22T04:08:50.438Z,98475.25
2022-08-22T04:11:42.609Z,98482.66
2022-08-22T04:14:28.841Z,98479.75
2022-08-22T04:17:21.268Z,98486.63
2022-08-22T04:20:27.619Z,98490.66
2022-08-22T04:23:43.361Z,98487.06
2022-08-22T04:26:16.482Z,98495.22
2022-08-22T04:28:49.084Z,98494.91
2022-08-22T04:31:23.433Z,98494.06
2022-08-22T04:33:55.662Z,98492.19
2022-08-22T04:36:30.372Z,98494.22
2022-08-22T04:39:03.686Z,98501.44
2022-08-22T04:41:37.579Z,98497.31
2022-08-22T04:44:12.027Z,98503.81
2022-08-22T04:46:49.045Z,98493.81
2022-08-22T04:49:25.899Z,98503.09
2022-08-22T04:52:04.178Z,98509.91
2022-08-22T04:54:44.038Z,98505.69
2022-08-22T04:57:27.054Z,98513.28
2022-08-22T05:00:00.379Z,98511.31
2022-08-22T05:02:29.771Z,98517.28
2022-08-22T05:05:04.018Z,98512.88
2022-08-22T05:07:36.491Z,98522.75
2022-08-22T05:10:12.038Z,98514.97
2022-08-22T05:12:44.693Z,98520.84
2022-08-22T05:15:19.033Z,98516.31
2022-08-22T05:17:57.298Z,98518.75
2022-08-22T05:20:28.731Z,98514.22
2022-08-22T05:22:59.438Z,98522.66
2022-08-22T05:25:32.402Z,98517.47
2022-08-22T05:28:08.546Z,98517.81
2022-08-22T05:30:37.577Z,98528.50
2022-08-22T05:33:17.603Z,98521.94
2022-08-22T05:35:54.579Z,98521.66
2022-08-22T05:38:31.001Z,98524.63
2022-08-22T05:41:06.505Z,98520.28
2022-08-22T05:43:40.628Z,98524.47
2022-08-22T05:46:17.550Z,98533.78
2022-08-22T05:48:54.179Z,98523.75
2022-08-22T05:51:26.501Z,98528.13
2022-08-22T05:54:08.254Z,98531.03
2022-08-22T05:56:39.885Z,98529.94
2022-08-22T05:59:23.137Z,98520.97
2022-08-22T06:02:01.681Z,98516.72
2022-08-22T06:04:36.864Z,98525.22
2022-08-22T06:07:13.078Z,98523.75
2022-08-22T06:10:02.871Z,98518.22
2022-08-22T06:12:37.602Z,98521.22
2022-08-22T06:15:12.826Z,98515.25
2022-08-22T06:17:45.502Z,98522.09
2022-08-22T06:20:21.384Z,98523.19
2022-08-22T06:22:55.272Z,98514.84
2022-08-22T06:25:32.719Z,98522.03
2022-08-22T06:28:05.191Z,98525.53
2022-08-22T06:30:35.151Z,98530.56
2022-08-22T06:33:08.131Z,98527.22
2022-08-22T06:36:03.032Z,98525.84
2022-08-22T06:38:52.917Z,98521.00
2022-08-22T06:41:27.550Z,98523.50
2022-08-22T06:43:57.448Z,98522.06
2022-08-22T06:46:29.828Z,98526.50
2022-08-22T06:49:03.950Z,98522.91
2022-08-22T06:51:35.795Z,98521.66
2022-08-22T06:54:08.002Z,98520.50
2022-08-22T06:56:41.088Z,98526.38
2022-08-22T06:59:12.002Z,98524.34
2022-08-22T07:01:45.295Z,98528.69
2022-08-22T07:04:14.026Z,98541.69
2022-08-22T07:06:47.269Z,98536.91
2022-08-22T07:09:23.217Z,98540.19
2022-08-22T07:11:52.987Z,98546.00
2022-08-22T07:14:30.026Z,98530.69
2022-08-22T07:17:00.482Z,98531.28
2022-08-22T07:19:30.706Z,98537.19
2022-08-22T07:22:11.000Z,98528.81
2022-08-22T07:24:49.653Z,98528.72
2022-08-22T07:27:32.960Z,98526.31
2022-08-22T07:30:05.899Z,98525.38
2022-08-22T07:32:57.810Z,98528.38
2022-08-22T07:35:53.507Z,98524.34
2022-08-22T07:38:33.634Z,98527.97
2022-08-22T07:41:10.196Z,98532.56
2022-08-22T07:43:44.499Z,98523.09
2022-08-22T07:46:23.915Z,98524.13
2022-08-22T07:49:08.591Z,98530.56
2022-08-22T07:51:45.012Z,98534.88
2022-08-22T07:54:17.614Z,98534.97
2022-08-22T07:56:52.865Z,98523.88
2022-08-22T07:59:23.150Z,98523.81
2022-08-22T08:01:55.301Z,98528.28
2022-08-22T08:04:30.042Z,98533.31
2022-08-22T08:07:03.026Z,98534.66
2022-08-22T08:09:35.045Z,98537.56
2022-08-22T08:12:06.452Z,98546.59
2022-08-22T08:14:38.063Z,98541.44
2022-08-22T08:17:14.503Z,98541.22
2022-08-22T08:19:44.228Z,98535.94
2022-08-22T08:22:18.224Z,98540.06
2022-08-22T08:24:49.253Z,98542.91
2022-08-22T08:27:38.820Z,98544.94
2022-08-22T08:30:15.394Z,98541.19
2022-08-22T08:32:48.159Z,98535.72
2022-08-22T08:35:25.478Z,98534.69
2022-08-22T08:37:59.042Z,98535.41
2022-08-22T08:40:55.178Z,98529.91
2022-08-22T08:43:31.353Z,98530.88
2022-08-22T08:46:26.254Z,98533.97
2022-08-22T08:49:13.208Z,98534.31
2022-08-22T08:52:04.664Z,98521.13
2022-08-22T08:54:56.056Z,98515.81
2022-08-22T08:57:38.584Z,98517.97
2022-08-22T09:00:12.417Z,98510.94
2022-08-22T09:03:09.567Z,98519.00
2022-08-22T09:06:02.351Z,98514.56
2022-08-22T09:09:09.031Z,98512.34
2022-08-22T09:12:16.620Z,98503.59
2022-08-22T09:15:26.280Z,98510.38
2022-08-22T09:18:29.877Z,98504.53
2022-08-22T09:21:31.180Z,98512.88
2022-08-22T09:24:29.393Z,98508.28
2022-08-22T09:27:01.206Z,98500.66
2022-08-22T09:29:54.643Z,98507.28
2022-08-22T09:32:37.471Z,98501.00
2022-08-22T09:35:10.659Z,98507.28
2022-08-22T09:37:51.702Z,98507.94
2022-08-22T09:43:02.584Z,98503.66
2022-08-22T09:45:50.110Z,98496.03
2022-08-22T09:48:36.805Z,98497.53
2022-08-22T09:51:31.771Z,98508.47
2022-08-22T09:54:31.536Z,98499.69
2022-08-22T09:57:19.454Z,98499.53
2022-08-22T10:00:16.431Z,98498.66
2022-08-22T10:02:58.777Z,98502.16
2022-08-22T10:05:43.557Z,98502.41
2022-08-22T10:08:20.908Z,98490.03
2022-08-22T10:11:18.938Z,98497.63
2022-08-22T10:14:01.276Z,98489.38
2022-08-22T10:16:56.336Z,98490.22
2022-08-22T10:19:29.639Z,98499.19
2022-08-22T10:22:30.324Z,98494.66
2022-08-22T10:25:09.218Z,98490.75
2022-08-22T10:27:56.178Z,98489.31
2022-08-22T10:30:28.466Z,98480.41
2022-08-22T10:33:05.336Z,98482.31
2022-08-22T10:35:39.001Z,98471.03
2022-08-22T10:38:17.845Z,98461.69
2022-08-22T10:40:53.870Z,98468.22
2022-08-22T10:43:31.810Z,98463.50
2022-08-22T10:46:06.667Z,98463.16
2022-08-22T10:48:47.810Z,98467.59
2022-08-22T10:51:21.419Z,98462.22
2022-08-22T10:54:20.106Z,98465.50
2022-08-22T10:56:56.070Z,98451.06
2022-08-22T10:59:41.198Z,98444.72
2022-08-22T11:02:34.884Z,98441.31
2022-08-22T11:05:25.818Z,98436.34
2022-08-22T11:08:06.343Z,98435.31
2022-08-22T11:10:52.112Z,98437.28
2022-08-22T11:13:39.593Z,98441.63
2022-08-22T11:16:26.155Z,98429.88
2022-08-22T11:19:15.346Z,98431.19
2022-08-22T11:22:00.738Z,98435.16
2022-08-22T11:25:05.015Z,98433.63
2022-08-22T11:27:45.656Z,98437.31
2022-08-22T11:30:19.273Z,98433.94
2022-08-22T11:33:10.989Z,98423.72
2022-08-22T11:35:46.171Z,98425.44
2022-08-22T11:38:32.079Z,98422.63
2022-08-22T11:41:05.154Z,98424.19
2022-08-22T11:43:50.045Z,98420.06
2022-08-22T11:46:29.346Z,98413.69
2022-08-22T11:49:15.110Z,98409.81
2022-08-22T11:52:00.266Z,98408.03
2022-08-22T11:54:42.182Z,98408.25
2022-08-22T11:57:18.783Z,98403.28
2022-08-22T12:00:10.133Z,98397.03
2022-08-22T12:02:48.647Z,98415.56
2022-08-22T12:05:24.501Z,98414.59
2022-08-22T12:08:02.374Z,98406.28
2022-08-22T12:10:34.860Z,98399.66
2022-08-22T12:13:09.209Z,98399.00
2022-08-22T12:15:53.935Z,98395.81
2022-08-22T12:18:44.982Z,98395.06
2022-08-22T12:21:49.641Z,98393.31
2022-08-22T12:24:33.378Z,98374.59
2022-08-22T12:27:28.989Z,98379.16
2022-08-22T12:30:14.237Z,98388.66
2022-08-22T12:33:22.004Z,98388.53
2022-08-22T12:36:17.911Z,98384.56
2022-08-22T12:39:25.192Z,98377.69
2022-08-22T12:42:23.937Z,98369.44
2022-08-22T12:45:19.507Z,98376.13
2022-08-22T12:48:00.960Z,98371.28
2022-08-22T12:50:41.524Z,98376.66
2022-08-22T12:53:58.809Z,98369.53
2022-08-22T12:56:39.021Z,98357.09
2022-08-22T12:59:27.270Z,98362.56
2022-08-22T13:01:58.890Z,98352.66
2022-08-22T13:04:33.018Z,98367.66
2022-08-22T13:07:10.481Z,98351.00
2022-08-22T13:09:49.376Z,98352.72
2022-08-22T13:12:28.529Z,98347.78
2022-08-22T13:15:02.951Z,98356.78
2022-08-22T13:17:31.459Z,98354.81
2022-08-22T13:20:10.793Z,98357.03
2022-08-22T13:22:45.672Z,98352.00
2022-08-22T13:25:26.103Z,98342.06
2022-08-22T13:27:59.960Z,98340.13
2022-08-22T13:30:33.752Z,98342.31
2022-08-22T13:33:09.475Z,98334.41
2022-08-22T13:35:44.689Z,98344.34
2022-08-22T13:38:26.011Z,98339.50
2022-08-22T13:40:57.839Z,98340.91
2022-08-22T13:43:31.160Z,98345.00
2022-08-22T13:46:02.485Z,98339.28
2022-08-22T13:48:47.053Z,98342.38
2022-08-22T13:51:24.730Z,98340.22
2022-08-22T13:54:02.003Z,98335.91
2022-08-22T13:56:47.243Z,98341.38
2022-08-22T13:59:47.487Z,98340.41
2022-08-22T14:02:19.729Z,98343.50
2022-08-22T14:04:54.072Z,98338.88
2022-08-22T14:07:33.398Z,98346.94
2022-08-22T14:10:15.165Z,98340.94
2022-08-22T14:13:07.995Z,98336.53
2022-08-22T14:15:44.872Z,98326.94
2022-08-22T14:18:18.513Z,98335.69
2022-08-22T14:20:48.436Z,98328.13
2022-08-22T14:23:26.919Z,98325.19
2022-08-22T14:25:57.297Z,98323.09
2022-08-22T14:28:31.544Z,98323.44
2022-08-22T14:31:07.292Z,98317.56
2022-08-22T14:33:40.864Z,98325.53
2022-08-22T14:36:18.203Z,98324.09
2022-08-22T14:38:51.824Z,98318.41
2022-08-22T14:41:55.740Z,98321.66
2022-08-22T14:44:26.831Z,98314.81
2022-08-22T14:46:58.230Z,98322.94
2022-08-22T14:49:35.416Z,98323.28
2022-08-22T14:52:10.835Z,98314.31
2022-08-22T14:54:48.655Z,98310.28
2022-08-22T14:57:20.851Z,98316.59
2022-08-22T14:59:54.252Z,98306.00
2022-08-22T15:02:29.583Z,98303.03
2022-08-22T15:05:02.213Z,98303.63
2022-08-22T15:07:36.502Z,98304.53
2022-08-22T15:10:11.856Z,98301.22
2022-08-22T15:12:49.756Z,98301.81
2022-08-22T15:15:32.549Z,98290.00
2022-08-22T15:18:18.743Z,98291.50
2022-08-22T15:20:52.160Z,98295.53
2022-08-22T15:23:23.262Z,98293.63
2022-08-22T15:26:03.689Z,98287.03
2022-08-22T15:28:52.273Z,98287.00
2022-08-22T15:31:23.484Z,98287.72
2022-08-22T15:33:52.204Z,98289.31
2022-08-22T15:36:22.810Z,98289.19
2022-08-22T15:38:54.781Z,98289.44
2022-08-22T15:41:39.801Z,98286.75
2022-08-22T15:44:15.054Z,98281.00
2022-08-22T15:47:23.739Z,98285.34
2022-08-22T15:49:56.402Z,98275.31
2022-08-22T15:52:29.968Z,98288.34
2022-08-22T15:55:18.658Z,98277.00
2022-08-22T15:58:04.472Z,98278.50
2022-08-22T16:00:43.388Z,98278.34
2022-08-22T16:03:26.991Z,98275.75
2022-08-22T16:05:59.251Z,98279.50
2022-08-22T16:08:33.259Z,98276.53
2022-08-22T16:11:32.937Z,98277.22
2022-08-22T16:14:22.201Z,98280.63
2022-08-22T16:17:02.312Z,98280.25
2022-08-22T16:19:32.880Z,98277.34
2022-08-22T16:22:15.451Z,98276.16
2022-08-22T16:25:00.159Z,98281.50
2022-08-22T16:27:30.197Z,98282.16
2022-08-22T16:30:15.275Z,98275.47
2022-08-22T16:32:56.252Z,98276.78
2022-08-22T16:36:03.777Z,98270.50
2022-08-22T16:38:45.048Z,98274.59
2022-08-22T16:41:42.857Z,98270.94
2022-08-22T16:44:33.937Z,98274.00
2022-08-22T16:47:14.952Z,98267.34
2022-08-22T16:50:04.523Z,98273.34
2022-08-22T16:52:58.338Z,98275.09
2022-08-22T16:55:49.649Z,98265.81
2022-08-22T16:58:59.237Z,98272.66
2022-08-22T17:02:13.237Z,98271.66
2022-08-22T17:04:53.449Z,98275.09
2022-08-22T17:07:36.437Z,98277.97
2022-08-22T17:10:33.441Z,98275.50
2022-08-22T17:13:26.513Z,98277.25
2022-08-22T17:16:07.330Z,98273.44
2022-08-22T17:18:47.752Z,98277.94
2022-08-22T17:21:25.918Z,98289.53
2022-08-22T17:24:07.115Z,98289.41
2022-08-22T17:26:54.286Z,98285.59
2022-08-22T17:29:34.387Z,98288.88
2022-08-22T17:32:16.802Z,98285.66
2022-08-22T17:34:56.113Z,98294.09
2022-08-22T17:37:41.876Z,98294.91
2022-08-22T17:40:23.125Z,98301.22
2022-08-22T17:43:04.845Z,98303.28
2022-08-22T17:45:52.141Z,98301.09
2022-08-22T17:48:26.061Z,98306.34
2022-08-22T17:50:59.276Z,98307.88
2022-08-22T17:53:35.115Z,98305.91
2022-08-22T17:56:14.604Z,98314.78
2022-08-22T17:58:50.838Z,98322.66
2022-08-22T18:01:40.855Z,98322.06
2022-08-22T18:04:20.284Z,98321.31
2022-08-22T18:06:56.255Z,98322.44
2022-08-22T18:09:36.451Z,98317.78
2022-08-22T18:12:15.657Z,98328.53
2022-08-22T18:14:51.378Z,98323.81
2022-08-22T18:17:38.463Z,98328.66
2022-08-22T18:20:13.089Z,98331.91
2022-08-22T18:22:47.945Z,98334.38
2022-08-22T18:25:34.124Z,98336.31
2022-08-22T18:28:11.462Z,98337.22
2022-08-22T18:30:51.971Z,98338.53
2022-08-22T18:33:32.996Z,98343.91
2022-08-22T18:36:09.200Z,98345.16
2022-08-22T18:38:51.161Z,98344.97
2022-08-22T18:41:27.758Z,98344.31
2022-08-22T18:43:56.910Z,98353.47
2022-08-22T18:46:45.500Z,98354.31
2022-08-22T18:49:43.437Z,98353.25
2022-08-22T18:52:35.728Z,98357.75
2022-08-22T18:55:36.667Z,98362.13
2022-08-22T18:58:41.732Z,98367.03
2022-08-22T19:01:31.195Z,98371.91
2022-08-22T19:04:41.658Z,98372.78
2022-08-22T19:07:43.014Z,98371.56
2022-08-22T19:10:31.939Z,98372.94
2022-08-22T19:13:19.296Z,98371.94
2022-08-22T19:16:01.166Z,98385.47
2022-08-22T19:18:38.089Z,98382.94
2022-08-22T19:21:50.689Z,98383.19
2022-08-22T19:25:04.937Z,98387.97
2022-08-22T19:27:40.921Z,98392.78
2022-08-22T19:30:47.875Z,98388.56
2022-08-22T19:33:27.649Z,98392.09
2022-08-22T19:36:13.766Z,98392.50
2022-08-22T19:38:56.934Z,98390.38
2022-08-22T19:41:47.641Z,98403.09
2022-08-22T19:44:35.972Z,98393.19
2022-08-22T19:47:13.915Z,98388.31
2022-08-22T19:49:49.919Z,98397.03
2022-08-22T19:52:28.580Z,98399.44
2022-08-22T19:55:16.330Z,98394.88
2022-08-22T19:57:57.082Z,98396.56
2022-08-22T20:00:49.262Z,98408.59
2022-08-22T20:03:33.545Z,98411.75
2022-08-22T20:06:22.005Z,98409.47
2022-08-22T20:09:13.395Z,98407.25
2022-08-22T20:11:49.579Z,98401.56
2022-08-22T20:14:30.532Z,98408.63
2022-08-22T20:17:09.048Z,98412.31
2022-08-22T20:19:41.826Z,98407.13
2022-08-22T20:22:16.321Z,98420.34
2022-08-22T20:24:50.836Z,98422.88
2022-08-22T20:27:25.232Z,98427.34
2022-08-22T20:30:03.217Z,98417.16
2022-08-22T20:32:37.921Z,98424.72
2022-08-22T20:35:08.986Z,98427.34
2022-08-22T20:38:05.217Z,98422.91
2022-08-22T20:40:55.066Z,98425.66
2022-08-22T20:43:34.472Z,98434.00
2022-08-22T20:46:19.336Z,98431.56
2022-08-22T20:48:52.392Z,98431.50
2022-08-22T20:51:25.275Z,98435.50
2022-08-22T20:53:56.874Z,98437.88
2022-08-22T20:56:37.907Z,98441.72
2022-08-22T20:59:23.426Z,98448.34
2022-08-22T21:01:58.110Z,98443.59
2022-08-22T21:04:29.350Z,98438.63
2022-08-22T21:07:01.641Z,98442.34
2022-08-22T21:09:48.325Z,98439.88
2022-08-22T21:12:17.188Z,98434.69
2022-08-22T21:14:47.323Z,98434.50
2022-08-22T21:17:24.128Z,98436.56
2022-08-22T21:19:54.357Z,98445.03
2022-08-22T21:22:29.652Z,98444.22
2022-08-22T21:25:00.262Z,98447.38
2022-08-22T21:27:32.612Z,98445.69
2022-08-22T21:30:04.065Z,98451.44
2022-08-22T21:32:38.659Z,98445.22
2022-08-22T21:35:21.744Z,98451.34
2022-08-22T21:37:51.200Z,98451.31
2022-08-22T21:40:25.218Z,98446.06
2022-08-22T21:43:06.074Z,98452.38
2022-08-22T21:45:37.152Z,98457.44
2022-08-22T21:48:34.972Z,98462.91
2022-08-22T21:51:23.827Z,98457.53
2022-08-22T21:54:16.156Z,98461.81
2022-08-22T21:56:40.723Z,98466.38
2022-08-22T21:59:25.849Z,98473.06
2022-08-22T22:02:31.464Z,98474.28
2022-08-22T22:05:10.076Z,98470.22
2022-08-22T22:07:40.575Z,98471.19
2022-08-22T22:10:12.579Z,98479.59
2022-08-22T22:12:47.690Z,98485.97
2022-08-22T22:15:19.626Z,98483.03
2022-08-22T22:17:51.398Z,98474.38
2022-08-22T22:20:23.748Z,98485.09
2022-08-22T22:22:52.785Z,98479.53
2022-08-22T22:25:40.286Z,98476.81
2022-08-22T22:28:14.562Z,98487.28
2022-08-22T22:30:43.974Z,98484.66
2022-08-22T22:33:13.420Z,98493.38
2022-08-22T22:35:42.848Z,98490.59
2022-08-22T22:38:11.652Z,98489.53
2022-08-22T22:40:41.682Z,98493.22
2022-08-22T22:43:11.508Z,98508.13
2022-08-22T22:45:41.364Z,98507.47
2022-08-22T22:48:10.740Z,98504.81
2022-08-22T22:50:44.890Z,98503.84
2022-08-22T22:53:19.375Z,98509.50
2022-08-22T22:55:59.755Z,98509.47
2022-08-22T22:58:29.742Z,98511.47
2022-08-22T23:00:59.371Z,98514.16
2022-08-22T23:03:28.630Z,98512.53
2022-08-22T23:05:58.045Z,98514.34
2022-08-22T23:08:26.881Z,98518.88
2022-08-22T23:10:56.532Z,98517.66
2022-08-22T23:13:24.893Z,98515.84
2022-08-22T23:15:53.002Z,98517.06
2022-08-22T23:18:30.507Z,98512.09
2022-08-22T23:21:13.601Z,98521.72
2022-08-22T23:23:43.469Z,98525.38
2022-08-22T23:26:13.786Z,98526.38
2022-08-22T23:28:43.655Z,98527.03
2022-08-22T23:31:14.716Z,98534.50
2022-08-22T23:33:43.808Z,98531.19
2022-08-22T23:36:18.699Z,98537.84
2022-08-22T23:38:47.554Z,98533.91
2022-08-22T23:41:19.737Z,98533.25
2022-08-22T23:43:49.566Z,98539.25
2022-08-22T23:46:19.616Z,98538.44
2022-08-22T23:48:47.792Z,98536.28
2022-08-22T23:51:18.764Z,98539.75
2022-08-22T23:53:52.328Z,98532.06
2022-08-22T23:56:27.311Z,98532.56
2022-08-22T23:58:55.468Z,98526.56
